createdAt,value
2018-04-14T00:00:44.831Z,0
2018-04-14T00:01:45.401Z,0
2018-04-14T00:02:45.958Z,0
2018-04-14T00:03:46.526Z,0
2018-04-14T00:04:47.086Z,0
2018-04-14T00:05:47.633Z,0
2018-04-14T00:06:48.181Z,0
2018-04-14T00:07:48.733Z,0
2018-04-14T00:08:49.280Z,0
2018-04-14T00:09:49.833Z,0
2018-04-14T00:10:50.378Z,0
2018-04-14T00:11:50.919Z,0
2018-04-14T00:12:51.464Z,0
2018-04-14T00:13:52.016Z,0
2018-04-14T00:14:52.561Z,0
2018-04-14T00:15:53.108Z,0
2018-04-14T00:16:53.652Z,0
2018-04-14T00:17:54.195Z,0
2018-04-14T00:18:54.741Z,0
2018-04-14T00:19:55.287Z,0
2018-04-14T00:20:55.827Z,0
2018-04-14T00:21:56.380Z,0
2018-04-14T00:22:56.924Z,0
2018-04-14T00:23:57.472Z,0
2018-04-14T00:24:58.011Z,0
2018-04-14T00:25:58.558Z,0
2018-04-14T00:26:59.108Z,0
2018-04-14T00:27:59.655Z,0
2018-04-14T00:29:00.204Z,0
2018-04-14T00:30:00.751Z,0
2018-04-14T00:31:01.296Z,0
2018-04-14T00:32:01.838Z,0
2018-04-14T00:33:02.391Z,0
2018-04-14T00:34:02.933Z,0
2018-04-14T00:35:03.483Z,0
2018-04-14T00:36:04.047Z,0
2018-04-14T00:37:04.577Z,0
2018-04-14T00:38:05.117Z,0
2018-04-14T00:39:05.660Z,0
2018-04-14T00:40:06.206Z,0
2018-04-14T00:41:06.757Z,0
2018-04-14T00:42:07.304Z,0
2018-04-14T00:43:07.842Z,0
2018-04-14T00:44:08.382Z,0
2018-04-14T00:45:08.933Z,0
2018-04-14T00:46:09.483Z,0
2018-04-14T00:47:10.028Z,0
2018-04-14T00:48:10.571Z,0
2018-04-14T00:49:11.120Z,0
2018-04-14T00:50:11.661Z,0
2018-04-14T00:51:12.207Z,0
2018-04-14T00:52:12.753Z,0
2018-04-14T00:53:13.297Z,0
2018-04-14T00:54:13.846Z,0
2018-04-14T00:55:14.389Z,0
2018-04-14T00:56:14.934Z,0
2018-04-14T00:57:15.481Z,0
2018-04-14T00:58:16.027Z,0
2018-04-14T00:59:16.560Z,0
2018-04-14T01:00:17.100Z,0
2018-04-14T01:01:17.646Z,0
2018-04-14T01:02:18.187Z,0
2018-04-14T01:03:18.735Z,0
2018-04-14T01:04:19.284Z,0
2018-04-14T01:05:19.826Z,0
2018-04-14T01:06:20.368Z,0
2018-04-14T01:07:20.912Z,0
2018-04-14T01:08:21.456Z,0
2018-04-14T01:09:21.997Z,0
2018-04-14T01:10:22.537Z,0
2018-04-14T01:11:23.082Z,0
2018-04-14T01:12:23.628Z,0
2018-04-14T01:13:24.173Z,0
2018-04-14T01:14:24.724Z,0
2018-04-14T01:15:25.258Z,0
2018-04-14T01:16:25.804Z,0
2018-04-14T01:17:26.354Z,0
2018-04-14T01:18:26.899Z,0
2018-04-14T01:19:27.449Z,0
2018-04-14T01:20:27.988Z,0
2018-04-14T01:21:28.540Z,0
2018-04-14T01:22:29.083Z,0
2018-04-14T01:23:29.633Z,0
2018-04-14T01:24:30.174Z,0
2018-04-14T01:25:30.720Z,0
2018-04-14T01:26:31.267Z,0
2018-04-14T01:27:31.812Z,0
2018-04-14T01:28:32.359Z,0
2018-04-14T01:29:32.898Z,0
2018-04-14T01:30:33.442Z,0
2018-04-14T01:31:33.988Z,0
2018-04-14T01:32:34.528Z,0
2018-04-14T01:33:35.071Z,0
2018-04-14T01:34:35.620Z,0
2018-04-14T01:35:36.161Z,0
2018-04-14T01:36:36.704Z,0
2018-04-14T01:37:37.239Z,0
2018-04-14T01:38:37.784Z,0
2018-04-14T01:39:38.331Z,0
2018-04-14T01:40:38.874Z,0
2018-04-14T01:41:39.415Z,0
2018-04-14T01:42:39.958Z,0
2018-04-14T01:43:40.504Z,0
2018-04-14T01:44:41.049Z,0
2018-04-14T01:45:41.593Z,0
2018-04-14T01:46:42.139Z,0
2018-04-14T01:47:42.683Z,0
2018-04-14T01:48:43.234Z,0
2018-04-14T01:49:43.772Z,0
2018-04-14T01:50:44.318Z,0
2018-04-14T01:51:44.862Z,0
2018-04-14T01:52:45.399Z,0
2018-04-14T01:53:45.946Z,0
2018-04-14T01:54:46.493Z,0
2018-04-14T01:55:47.036Z,0
2018-04-14T01:56:47.577Z,0
2018-04-14T01:57:48.127Z,0
2018-04-14T01:58:48.672Z,0
2018-04-14T01:59:49.217Z,0
2018-04-14T02:00:49.765Z,0
2018-04-14T02:01:50.303Z,0
2018-04-14T02:02:50.856Z,0
2018-04-14T02:03:51.401Z,0
2018-04-14T02:04:51.946Z,0
2018-04-14T02:05:52.479Z,0
2018-04-14T02:06:53.022Z,0
2018-04-14T02:07:53.559Z,0
2018-04-14T02:08:54.101Z,0
2018-04-14T02:09:54.648Z,0
2018-04-14T02:10:55.199Z,0
2018-04-14T02:11:55.739Z,0
2018-04-14T02:12:56.285Z,0
2018-04-14T02:13:56.830Z,0
2018-04-14T02:14:57.376Z,0
2018-04-14T02:15:57.924Z,0
2018-04-14T02:16:58.483Z,0
2018-04-14T02:17:59.024Z,0
2018-04-14T02:18:59.562Z,0
2018-04-14T02:20:00.102Z,0
2018-04-14T02:21:00.646Z,0
2018-04-14T02:22:01.193Z,0
2018-04-14T02:23:01.737Z,0
2018-04-14T02:24:02.286Z,0
2018-04-14T02:25:02.830Z,0
2018-04-14T02:26:03.378Z,0
2018-04-14T02:27:03.925Z,0
2018-04-14T02:28:04.471Z,0
2018-04-14T02:29:05.017Z,0
2018-04-14T02:30:05.557Z,0
2018-04-14T02:31:06.102Z,0
2018-04-14T02:32:06.647Z,0
2018-04-14T02:33:07.195Z,0
2018-04-14T02:34:07.740Z,0
2018-04-14T02:35:08.281Z,0
2018-04-14T02:36:08.818Z,0
2018-04-14T02:37:09.378Z,0
2018-04-14T02:38:09.913Z,0
2018-04-14T02:39:10.461Z,0
2018-04-14T02:40:11.001Z,0
2018-04-14T02:41:11.544Z,0
2018-04-14T02:42:12.094Z,0
2018-04-14T02:43:12.638Z,0
2018-04-14T02:44:13.187Z,0
2018-04-14T02:45:13.727Z,0
2018-04-14T02:46:14.267Z,0
2018-04-14T02:47:14.816Z,0
2018-04-14T02:48:15.361Z,0
2018-04-14T02:49:15.905Z,0
2018-04-14T02:50:16.449Z,0
2018-04-14T02:51:16.996Z,0
2018-04-14T02:52:17.570Z,0
2018-04-14T02:53:18.077Z,0
2018-04-14T02:54:18.621Z,0
2018-04-14T02:55:19.162Z,0
2018-04-14T02:56:19.707Z,0
2018-04-14T02:57:20.247Z,0
2018-04-14T02:58:20.788Z,0
2018-04-14T02:59:21.331Z,0
2018-04-14T03:00:21.868Z,0
2018-04-14T03:01:22.417Z,0
2018-04-14T03:02:22.959Z,0
2018-04-14T03:03:23.501Z,0
2018-04-14T03:04:24.043Z,0
2018-04-14T03:05:24.595Z,0
2018-04-14T03:06:25.141Z,0
2018-04-14T03:07:25.683Z,0
2018-04-14T03:08:26.231Z,0
2018-04-14T03:09:26.781Z,0
2018-04-14T03:10:27.323Z,0
2018-04-14T03:11:27.858Z,0
2018-04-14T03:12:28.404Z,0
2018-04-14T03:13:28.947Z,0
2018-04-14T03:14:29.489Z,0
2018-04-14T03:15:30.037Z,0
2018-04-14T03:16:30.581Z,0
2018-04-14T03:17:31.127Z,0
2018-04-14T03:18:31.669Z,0
2018-04-14T03:19:32.212Z,0
2018-04-14T03:20:32.763Z,0
2018-04-14T03:21:33.309Z,0
2018-04-14T03:22:33.851Z,0
2018-04-14T03:23:34.390Z,0
2018-04-14T03:24:34.939Z,0
2018-04-14T03:25:35.484Z,0
2018-04-14T03:26:36.035Z,0
2018-04-14T03:27:36.579Z,0
2018-04-14T03:28:37.121Z,0
2018-04-14T03:29:37.659Z,0
2018-04-14T03:30:38.238Z,0
2018-04-14T03:31:38.750Z,0
2018-04-14T03:32:39.295Z,0
2018-04-14T03:33:39.841Z,0
2018-04-14T03:34:40.377Z,0
2018-04-14T03:35:40.921Z,0
2018-04-14T03:36:41.470Z,0
2018-04-14T03:37:42.014Z,0
2018-04-14T03:38:42.553Z,0
2018-04-14T03:39:43.096Z,0
2018-04-14T03:40:43.641Z,0
2018-04-14T03:41:44.188Z,0
2018-04-14T03:42:44.729Z,0
2018-04-14T03:43:45.266Z,0
2018-04-14T03:44:45.812Z,0
2018-04-14T03:45:46.357Z,0
2018-04-14T03:46:46.900Z,0
2018-04-14T03:47:47.443Z,0
2018-04-14T03:48:47.991Z,0
2018-04-14T03:49:48.538Z,0
2018-04-14T03:50:49.082Z,0
2018-04-14T03:51:49.623Z,0
2018-04-14T03:52:50.173Z,0
2018-04-14T03:53:50.718Z,0
2018-04-14T03:54:51.264Z,0
2018-04-14T03:55:51.805Z,0
2018-04-14T03:56:52.344Z,0
2018-04-14T03:57:52.894Z,0
2018-04-14T03:58:53.436Z,0
2018-04-14T03:59:53.986Z,0
2018-04-14T04:00:54.524Z,0
2018-04-14T04:01:55.078Z,0
2018-04-14T04:02:55.609Z,0
2018-04-14T04:03:56.150Z,0
2018-04-14T04:04:56.708Z,0
2018-04-14T04:05:57.244Z,0
2018-04-14T04:06:57.788Z,0
2018-04-14T04:07:58.335Z,0
2018-04-14T04:08:58.880Z,0
2018-04-14T04:09:59.421Z,0
2018-04-14T04:10:59.963Z,0
2018-04-14T04:12:00.512Z,0
2018-04-14T04:13:01.059Z,0
2018-04-14T04:14:01.609Z,0
2018-04-14T04:15:02.152Z,0
2018-04-14T04:16:02.694Z,0
2018-04-14T04:17:03.237Z,0
2018-04-14T04:18:03.786Z,0
2018-04-14T04:19:04.334Z,0
2018-04-14T04:20:04.877Z,0
2018-04-14T04:21:05.423Z,0
2018-04-14T04:22:05.967Z,0
2018-04-14T04:23:06.511Z,0
2018-04-14T04:24:07.053Z,0
2018-04-14T04:25:07.591Z,0
2018-04-14T04:26:08.141Z,0
2018-04-14T04:27:08.683Z,0
2018-04-14T04:28:09.244Z,0
2018-04-14T04:29:09.774Z,0
2018-04-14T04:30:10.322Z,0
2018-04-14T04:31:10.873Z,0
2018-04-14T04:32:11.417Z,0
2018-04-14T04:33:11.964Z,0
2018-04-14T04:34:12.510Z,0
2018-04-14T04:35:13.051Z,0
2018-04-14T04:36:13.596Z,5
2018-04-14T04:37:14.144Z,5
2018-04-14T04:38:14.692Z,5
2018-04-14T04:39:15.239Z,5
2018-04-14T04:40:15.780Z,5
2018-04-14T04:41:16.329Z,10
2018-04-14T04:42:16.875Z,10
2018-04-14T04:43:17.426Z,10
2018-04-14T04:44:17.976Z,10
2018-04-14T04:45:18.514Z,15
2018-04-14T04:46:19.062Z,15
2018-04-14T04:47:19.608Z,15
2018-04-14T04:48:20.157Z,15
2018-04-14T04:49:20.699Z,20
2018-04-14T04:50:21.254Z,20
2018-04-14T04:51:21.799Z,20
2018-04-14T04:52:22.351Z,20
2018-04-14T04:53:22.892Z,20
2018-04-14T04:54:23.440Z,25
2018-04-14T04:55:23.986Z,25
2018-04-14T04:56:24.552Z,30
2018-04-14T04:57:25.085Z,35
2018-04-14T04:58:25.633Z,35
2018-04-14T04:59:26.185Z,35
2018-04-14T05:00:26.729Z,35
2018-04-14T05:01:27.284Z,40
2018-04-14T05:02:27.833Z,40
2018-04-14T05:03:28.382Z,40
2018-04-14T05:04:28.922Z,45
2018-04-14T05:05:29.476Z,45
2018-04-14T05:06:30.021Z,45
2018-04-14T05:07:30.572Z,50
2018-04-14T05:08:31.125Z,50
2018-04-14T05:09:31.667Z,50
2018-04-14T05:10:32.212Z,50
2018-04-14T05:11:32.763Z,50
2018-04-14T05:12:33.314Z,55
2018-04-14T05:13:33.865Z,60
2018-04-14T05:14:34.410Z,65
2018-04-14T05:15:34.968Z,65
2018-04-14T05:16:35.508Z,65
2018-04-14T05:17:36.064Z,70
2018-04-14T05:18:36.614Z,75
2018-04-14T05:19:37.164Z,80
2018-04-14T05:20:37.714Z,80
2018-04-14T05:21:38.260Z,80
2018-04-14T05:22:38.810Z,75
2018-04-14T05:23:39.360Z,75
2018-04-14T05:24:39.912Z,70
2018-04-14T05:25:40.460Z,70
2018-04-14T05:26:41.010Z,75
2018-04-14T05:27:41.561Z,80
2018-04-14T05:28:42.116Z,85
2018-04-14T05:29:42.676Z,85
2018-04-14T05:30:43.227Z,90
2018-04-14T05:31:43.778Z,90
2018-04-14T05:32:44.344Z,90
2018-04-14T05:33:44.891Z,95
2018-04-14T05:34:45.442Z,95
2018-04-14T05:35:45.997Z,95
2018-04-14T05:36:46.544Z,100
2018-04-14T05:37:47.095Z,105
2018-04-14T05:38:47.645Z,110
2018-04-14T05:39:48.199Z,115
2018-04-14T05:40:48.752Z,120
2018-04-14T05:41:49.303Z,115
2018-04-14T05:42:49.907Z,115
2018-04-14T05:43:50.411Z,120
2018-04-14T05:44:50.964Z,125
2018-04-14T05:45:51.508Z,125
2018-04-14T05:46:52.060Z,130
2018-04-14T05:47:52.606Z,135
2018-04-14T05:48:53.155Z,140
2018-04-14T05:49:53.705Z,145
2018-04-14T05:50:54.274Z,145
2018-04-14T05:51:54.807Z,150
2018-04-14T05:52:55.355Z,155
2018-04-14T05:53:55.907Z,160
2018-04-14T05:54:56.454Z,175
2018-04-14T05:55:57.019Z,195
2018-04-14T05:56:57.574Z,200
2018-04-14T05:57:58.116Z,205
2018-04-14T05:58:58.668Z,205
2018-04-14T05:59:59.216Z,210
2018-04-14T06:00:59.766Z,210
2018-04-14T06:02:00.321Z,220
2018-04-14T06:03:00.875Z,235
2018-04-14T06:04:01.425Z,240
2018-04-14T06:05:01.973Z,240
2018-04-14T06:06:02.533Z,235
2018-04-14T06:07:03.077Z,230
2018-04-14T06:08:03.627Z,235
2018-04-14T06:09:04.187Z,230
2018-04-14T06:10:04.740Z,225
2018-04-14T06:11:05.279Z,215
2018-04-14T06:12:05.831Z,205
2018-04-14T06:13:06.378Z,200
2018-04-14T06:14:06.934Z,205
2018-04-14T06:15:07.481Z,220
2018-04-14T06:16:08.033Z,265
2018-04-14T06:17:08.593Z,280
2018-04-14T06:18:09.185Z,265
2018-04-14T06:19:09.696Z,245
2018-04-14T06:20:10.263Z,240
2018-04-14T06:21:10.805Z,250
2018-04-14T06:22:11.411Z,280
2018-04-14T06:23:11.907Z,295
2018-04-14T06:24:12.473Z,300
2018-04-14T06:25:13.041Z,305
2018-04-14T06:26:13.595Z,320
2018-04-14T06:27:14.152Z,320
2018-04-14T06:28:14.751Z,315
2018-04-14T06:29:15.261Z,310
2018-04-14T06:30:15.818Z,310
2018-04-14T06:31:16.370Z,310
2018-04-14T06:32:16.923Z,315
2018-04-14T06:33:17.503Z,315
2018-04-14T06:34:18.039Z,345
2018-04-14T06:35:18.604Z,370
2018-04-14T06:36:19.159Z,390
2018-04-14T06:37:19.715Z,390
2018-04-14T06:38:20.269Z,380
2018-04-14T06:39:20.825Z,380
2018-04-14T06:40:21.381Z,380
2018-04-14T06:41:21.942Z,395
2018-04-14T06:42:22.498Z,410
2018-04-14T06:43:23.051Z,435
2018-04-14T06:44:23.612Z,450
2018-04-14T06:45:24.186Z,460
2018-04-14T06:46:24.728Z,465
2018-04-14T06:47:25.280Z,480
2018-04-14T06:48:25.842Z,495
2018-04-14T06:49:26.390Z,510
2018-04-14T06:50:26.946Z,515
2018-04-14T06:51:27.505Z,525
2018-04-14T06:52:28.063Z,545
2018-04-14T06:53:28.622Z,565
2018-04-14T06:54:29.178Z,575
2018-04-14T06:55:29.737Z,565
2018-04-14T06:56:30.300Z,555
2018-04-14T06:57:30.854Z,560
2018-04-14T06:58:31.408Z,575
2018-04-14T06:59:31.967Z,595
2018-04-14T07:00:32.526Z,605
2018-04-14T07:01:33.085Z,615
2018-04-14T07:02:33.641Z,610
2018-04-14T07:03:34.209Z,610
2018-04-14T07:04:34.778Z,620
2018-04-14T07:05:35.329Z,630
2018-04-14T07:06:35.887Z,645
2018-04-14T07:07:36.449Z,655
2018-04-14T07:08:37.006Z,655
2018-04-14T07:09:37.581Z,650
2018-04-14T07:10:38.125Z,655
2018-04-14T07:11:38.688Z,670
2018-04-14T07:12:39.239Z,680
2018-04-14T07:13:39.801Z,690
2018-04-14T07:14:40.361Z,690
2018-04-14T07:15:40.918Z,700
2018-04-14T07:16:41.487Z,715
2018-04-14T07:17:42.053Z,745
2018-04-14T07:18:42.614Z,765
2018-04-14T07:19:43.177Z,770
2018-04-14T07:20:43.747Z,760
2018-04-14T07:21:44.302Z,765
2018-04-14T07:22:44.860Z,770
2018-04-14T07:23:45.424Z,785
2018-04-14T07:24:45.984Z,785
2018-04-14T07:25:46.547Z,790
2018-04-14T07:26:47.123Z,800
2018-04-14T07:27:47.673Z,800
2018-04-14T07:28:48.237Z,815
2018-04-14T07:29:48.796Z,830
2018-04-14T07:30:49.378Z,835
2018-04-14T07:31:49.932Z,840
2018-04-14T07:32:50.493Z,850
2018-04-14T07:33:51.057Z,870
2018-04-14T07:34:51.620Z,885
2018-04-14T07:35:52.185Z,910
2018-04-14T07:36:52.751Z,925
2018-04-14T07:37:53.315Z,935
2018-04-14T07:38:53.878Z,935
2018-04-14T07:39:54.447Z,940
2018-04-14T07:40:55.014Z,945
2018-04-14T07:41:55.581Z,955
2018-04-14T07:42:56.143Z,975
2018-04-14T07:43:56.707Z,970
2018-04-14T07:44:57.321Z,970
2018-04-14T07:45:57.837Z,955
2018-04-14T07:46:58.395Z,970
2018-04-14T07:47:58.961Z,985
2018-04-14T07:48:59.523Z,1000
2018-04-14T07:50:00.089Z,985
2018-04-14T07:51:00.654Z,975
2018-04-14T07:52:01.218Z,940
2018-04-14T07:53:01.784Z,1000
2018-04-14T07:54:02.372Z,1015
2018-04-14T07:55:02.950Z,1065
2018-04-14T07:56:03.516Z,1135
2018-04-14T07:57:04.083Z,1150
2018-04-14T07:58:04.654Z,1130
2018-04-14T07:59:05.221Z,1100
2018-04-14T08:00:05.788Z,1100
2018-04-14T08:01:06.354Z,1100
2018-04-14T08:02:06.926Z,1115
2018-04-14T08:03:07.497Z,1120
2018-04-14T08:04:08.063Z,1120
2018-04-14T08:05:08.631Z,1130
2018-04-14T08:06:09.204Z,1145
2018-04-14T08:07:09.773Z,1145
2018-04-14T08:08:10.335Z,1160
2018-04-14T08:09:10.901Z,1180
2018-04-14T08:10:11.471Z,1185
2018-04-14T08:11:12.039Z,1175
2018-04-14T08:12:12.604Z,1195
2018-04-14T08:13:13.187Z,1215
2018-04-14T08:14:13.745Z,1210
2018-04-14T08:15:14.329Z,1220
2018-04-14T08:16:14.885Z,1230
2018-04-14T08:17:15.453Z,1255
2018-04-14T08:18:16.022Z,1285
2018-04-14T08:19:16.592Z,1285
2018-04-14T08:20:17.167Z,1295
2018-04-14T08:21:17.725Z,1270
2018-04-14T08:22:18.296Z,1270
2018-04-14T08:23:18.864Z,1270
2018-04-14T08:24:19.426Z,1215
2018-04-14T08:25:20.003Z,1095
2018-04-14T08:26:20.569Z,1100
2018-04-14T08:27:21.137Z,1075
2018-04-14T08:28:21.706Z,1220
2018-04-14T08:29:22.279Z,1230
2018-04-14T08:30:22.844Z,1325
2018-04-14T08:31:23.412Z,1350
2018-04-14T08:32:23.980Z,1385
2018-04-14T08:33:24.559Z,1380
2018-04-14T08:34:25.124Z,1370
2018-04-14T08:35:25.690Z,1410
2018-04-14T08:36:26.257Z,1370
2018-04-14T08:37:26.918Z,1465
2018-04-14T08:38:27.383Z,1450
2018-04-14T08:39:27.961Z,1295
2018-04-14T08:40:28.523Z,1490
2018-04-14T08:41:29.095Z,1535
2018-04-14T08:42:29.664Z,1565
2018-04-14T08:43:30.237Z,1595
2018-04-14T08:44:30.811Z,1620
2018-04-14T08:45:31.382Z,1655
2018-04-14T08:46:31.949Z,1660
2018-04-14T08:47:32.517Z,1665
2018-04-14T08:48:33.085Z,1680
2018-04-14T08:49:33.652Z,1695
2018-04-14T08:50:34.228Z,1725
2018-04-14T08:51:34.789Z,1720
2018-04-14T08:52:35.360Z,1710
2018-04-14T08:53:35.930Z,1740
2018-04-14T08:54:36.520Z,1785
2018-04-14T08:55:37.072Z,1805
2018-04-14T08:56:37.640Z,1820
2018-04-14T08:57:38.210Z,1815
2018-04-14T08:58:38.779Z,1860
2018-04-14T08:59:39.347Z,1855
2018-04-14T09:00:39.916Z,1845
2018-04-14T09:01:40.483Z,1815
2018-04-14T09:02:41.055Z,1800
2018-04-14T09:03:41.626Z,1830
2018-04-14T09:04:42.192Z,1835
2018-04-14T09:05:42.770Z,1850
2018-04-14T09:06:43.330Z,1875
2018-04-14T09:07:43.898Z,1845
2018-04-14T09:08:44.470Z,1800
2018-04-14T09:09:45.038Z,1790
2018-04-14T09:10:45.610Z,1845
2018-04-14T09:11:46.174Z,1890
2018-04-14T09:12:46.751Z,1880
2018-04-14T09:13:47.324Z,1950
2018-04-14T09:14:47.890Z,1935
2018-04-14T09:15:48.464Z,1960
2018-04-14T09:16:49.030Z,1965
2018-04-14T09:17:49.599Z,1960
2018-04-14T09:18:50.213Z,1720
2018-04-14T09:19:50.762Z,1455
2018-04-14T09:20:51.332Z,1580
2018-04-14T09:21:51.901Z,1590
2018-04-14T09:22:52.471Z,1165
2018-04-14T09:23:53.045Z,915
2018-04-14T09:24:53.615Z,905
2018-04-14T09:25:54.221Z,1340
2018-04-14T09:26:54.760Z,1365
2018-04-14T09:27:55.321Z,860
2018-04-14T09:28:55.888Z,1220
2018-04-14T09:29:56.447Z,925
2018-04-14T09:30:57.033Z,920
2018-04-14T09:31:57.600Z,995
2018-04-14T09:32:58.172Z,1035
2018-04-14T09:33:58.736Z,1010
2018-04-14T09:34:59.302Z,950
2018-04-14T09:35:59.868Z,1050
2018-04-14T09:37:00.455Z,1095
2018-04-14T09:38:01.000Z,1085
2018-04-14T09:39:01.568Z,1095
2018-04-14T09:40:02.147Z,1195
2018-04-14T09:41:02.700Z,1305
2018-04-14T09:42:03.267Z,1075
2018-04-14T09:43:03.834Z,1110
2018-04-14T09:44:04.403Z,1280
2018-04-14T09:45:04.971Z,1090
2018-04-14T09:46:05.537Z,1160
2018-04-14T09:47:06.104Z,1285
2018-04-14T09:48:06.665Z,1290
2018-04-14T09:49:07.237Z,1400
2018-04-14T09:50:07.800Z,1625
2018-04-14T09:51:08.361Z,1765
2018-04-14T09:52:08.928Z,1795
2018-04-14T09:53:09.496Z,1785
2018-04-14T09:54:10.060Z,1810
2018-04-14T09:55:10.629Z,2180
2018-04-14T09:56:11.187Z,2375
2018-04-14T09:57:11.754Z,2615
2018-04-14T09:58:12.324Z,2690
2018-04-14T09:59:12.896Z,2625
2018-04-14T10:00:13.463Z,2290
2018-04-14T10:01:14.028Z,1600
2018-04-14T10:02:14.595Z,1060
2018-04-14T10:03:15.163Z,970
2018-04-14T10:04:15.733Z,1365
2018-04-14T10:05:16.302Z,2310
2018-04-14T10:06:16.872Z,2475
2018-04-14T10:07:17.439Z,2415
2018-04-14T10:08:18.007Z,2480
2018-04-14T10:09:18.572Z,2445
2018-04-14T10:10:19.157Z,2320
2018-04-14T10:11:19.711Z,2320
2018-04-14T10:12:20.337Z,2385
2018-04-14T10:13:20.984Z,2405
2018-04-14T10:14:21.534Z,2350
2018-04-14T10:15:22.104Z,2150
2018-04-14T10:16:22.688Z,1865
2018-04-14T10:17:23.245Z,1215
2018-04-14T10:18:23.818Z,1770
2018-04-14T10:19:24.388Z,2110
2018-04-14T10:20:24.954Z,2250
2018-04-14T10:21:25.523Z,2310
2018-04-14T10:22:26.096Z,2440
2018-04-14T10:23:26.663Z,2460
2018-04-14T10:24:27.231Z,2455
2018-04-14T10:25:27.797Z,2430
2018-04-14T10:26:28.366Z,2620
2018-04-14T10:27:28.936Z,2470
2018-04-14T10:28:29.507Z,2150
2018-04-14T10:29:30.073Z,1545
2018-04-14T10:30:30.642Z,1845
2018-04-14T10:31:31.208Z,2445
2018-04-14T10:32:31.779Z,2095
2018-04-14T10:33:32.350Z,2070
2018-04-14T10:34:32.915Z,2370
2018-04-14T10:35:33.480Z,2340
2018-04-14T10:36:34.047Z,2335
2018-04-14T10:37:34.612Z,2165
2018-04-14T10:38:35.181Z,2125
2018-04-14T10:39:35.747Z,2270
2018-04-14T10:40:36.320Z,2330
2018-04-14T10:41:36.888Z,2365
2018-04-14T10:42:37.455Z,2495
2018-04-14T10:43:38.028Z,1950
2018-04-14T10:44:38.598Z,2495
2018-04-14T10:45:39.169Z,2420
2018-04-14T10:46:39.737Z,2590
2018-04-14T10:47:40.307Z,2285
2018-04-14T10:48:40.875Z,2035
2018-04-14T10:49:41.448Z,1825
2018-04-14T10:50:42.011Z,2560
2018-04-14T10:51:42.574Z,2775
2018-04-14T10:52:43.138Z,2765
2018-04-14T10:53:43.708Z,3070
2018-04-14T10:54:44.277Z,2990
2018-04-14T10:55:44.870Z,2860
2018-04-14T10:56:45.404Z,2875
2018-04-14T10:57:45.978Z,2875
2018-04-14T10:58:46.545Z,2905
2018-04-14T10:59:47.118Z,2970
2018-04-14T11:00:47.685Z,2920
2018-04-14T11:01:48.258Z,2795
2018-04-14T11:02:48.829Z,2650
2018-04-14T11:03:49.402Z,2660
2018-04-14T11:04:49.969Z,2675
2018-04-14T11:05:50.540Z,2725
2018-04-14T11:06:51.108Z,2755
2018-04-14T11:07:51.679Z,2885
2018-04-14T11:08:52.244Z,2935
2018-04-14T11:09:52.817Z,2925
2018-04-14T11:10:53.390Z,2985
2018-04-14T11:11:53.961Z,2970
2018-04-14T11:12:54.532Z,3030
2018-04-14T11:13:55.103Z,2975
2018-04-14T11:14:55.675Z,2980
2018-04-14T11:15:56.244Z,3020
2018-04-14T11:16:56.811Z,2965
2018-04-14T11:31:47.412Z,1695
2018-04-14T11:32:47.978Z,1430
2018-04-14T11:33:48.545Z,1375
2018-04-14T11:34:49.118Z,1935
2018-04-14T11:35:49.688Z,2620
2018-04-14T11:36:50.256Z,2685
2018-04-14T11:37:50.830Z,2920
2018-04-14T11:38:51.397Z,2880
2018-04-14T11:39:51.962Z,3035
2018-04-14T11:40:52.537Z,3050
2018-04-14T11:41:53.112Z,3035
2018-04-14T11:42:53.676Z,2925
2018-04-14T11:43:54.247Z,2950
2018-04-14T11:44:54.825Z,2875
2018-04-14T11:45:55.393Z,2990
2018-04-14T11:46:55.959Z,2885
2018-04-14T11:47:56.529Z,2655
2018-04-14T11:48:57.097Z,2520
2018-04-14T11:49:57.667Z,2500
2018-04-14T11:50:58.240Z,2310
2018-04-14T11:51:58.800Z,2490
2018-04-14T11:52:59.372Z,2810
2018-04-14T11:53:59.937Z,2565
2018-04-14T11:55:00.508Z,2595
2018-04-14T11:56:01.080Z,1970
2018-04-14T11:57:01.650Z,1980
2018-04-14T11:58:02.214Z,1710
2018-04-14T11:59:02.782Z,1370
2018-04-14T12:00:03.351Z,1210
2018-04-14T12:01:03.924Z,1610
2018-04-14T12:02:04.496Z,2390
2018-04-14T12:03:05.061Z,2630
2018-04-14T12:04:05.624Z,2375
2018-04-14T12:05:06.194Z,2695
2018-04-14T12:06:06.764Z,2860
2018-04-14T12:07:07.338Z,2810
2018-04-14T12:08:07.901Z,2650
2018-04-14T12:09:08.469Z,2705
2018-04-14T12:10:09.034Z,2885
2018-04-14T12:11:09.600Z,2910
2018-04-14T12:12:10.166Z,2875
2018-04-14T12:13:10.743Z,2910
2018-04-14T12:14:11.308Z,2890
2018-04-14T12:15:11.878Z,2720
2018-04-14T12:16:12.441Z,2500
2018-04-14T12:17:13.019Z,2355
2018-04-14T12:18:13.585Z,1915
2018-04-14T12:19:14.147Z,1525
2018-04-14T12:20:14.719Z,1495
2018-04-14T12:21:15.286Z,1410
2018-04-14T12:22:15.856Z,1420
2018-04-14T12:23:16.428Z,1590
2018-04-14T12:24:16.987Z,1575
2018-04-14T12:25:17.562Z,1870
2018-04-14T12:26:18.141Z,2395
2018-04-14T12:27:18.712Z,2855
2018-04-14T12:28:19.313Z,2975
2018-04-14T12:44:25.317Z,950
2018-04-14T12:45:25.886Z,935
2018-04-14T12:46:26.452Z,1155
2018-04-14T12:47:27.016Z,1680
2018-04-14T12:48:27.588Z,1375
2018-04-14T12:49:28.155Z,1750
2018-04-14T12:50:28.725Z,2565
2018-04-14T12:51:29.295Z,2785
2018-04-14T12:52:29.861Z,2200
2018-04-14T12:53:30.423Z,2815
2018-04-14T12:54:30.991Z,2805
2018-04-14T12:55:31.551Z,2770
2018-04-14T12:56:32.117Z,2775
2018-04-14T12:57:32.688Z,2760
2018-04-14T12:58:33.257Z,2780
2018-04-14T12:59:33.828Z,2790
2018-04-14T13:00:34.399Z,2770
2018-04-14T13:01:34.967Z,2720
2018-04-14T13:02:35.539Z,2590
2018-04-14T13:03:36.109Z,2535
2018-04-14T13:04:36.673Z,2625
2018-04-14T13:05:37.242Z,2470
2018-04-14T13:06:37.811Z,2375
2018-04-14T13:07:38.382Z,1470
2018-04-14T13:08:38.955Z,1185
2018-04-14T13:09:39.519Z,1295
2018-04-14T13:10:40.087Z,2005
2018-04-14T13:11:40.656Z,2475
2018-04-14T13:12:41.228Z,2510
2018-04-14T13:13:41.800Z,2345
2018-04-14T13:14:42.368Z,1905
2018-04-14T13:15:42.937Z,1640
2018-04-14T13:16:43.501Z,1645
2018-04-14T13:17:44.070Z,1405
2018-04-14T13:18:44.636Z,1370
2018-04-14T13:19:45.203Z,1415
2018-04-14T13:20:45.771Z,1435
2018-04-14T13:21:46.339Z,1420
2018-04-14T13:22:46.906Z,1400
2018-04-14T13:23:47.473Z,1245
2018-04-14T13:24:48.102Z,1000
2018-04-14T13:25:49.227Z,810
2018-04-14T13:26:49.790Z,650
2018-04-14T13:27:50.359Z,650
2018-04-14T13:28:50.932Z,745
2018-04-14T13:29:51.493Z,760
2018-04-14T13:30:52.061Z,720
2018-04-14T13:31:52.631Z,665
2018-04-14T13:32:53.188Z,620
2018-04-14T13:33:53.754Z,590
2018-04-14T13:34:54.317Z,565
2018-04-14T13:51:00.279Z,600
2018-04-14T13:52:00.843Z,1060
2018-04-14T13:53:01.411Z,1265
2018-04-14T13:54:01.974Z,1415
2018-04-14T13:55:02.534Z,1540
2018-04-14T13:56:03.097Z,1735
2018-04-14T13:57:03.659Z,1740
2018-04-14T13:58:04.218Z,1780
2018-04-14T13:59:04.782Z,1810
2018-04-14T14:00:05.347Z,1720
2018-04-14T14:01:05.905Z,1810
2018-04-14T14:02:06.475Z,1725
2018-04-14T14:03:07.037Z,1555
2018-04-14T14:04:07.600Z,1310
2018-04-14T14:05:08.169Z,1195
2018-04-14T14:06:08.732Z,1190
2018-04-14T14:07:09.301Z,1160
2018-04-14T14:08:09.876Z,1110
2018-04-14T14:09:10.434Z,1135
2018-04-14T14:10:10.994Z,1070
2018-04-14T14:11:11.566Z,1010
2018-04-14T14:12:12.128Z,920
2018-04-14T14:13:12.700Z,915
2018-04-14T14:14:13.263Z,830
2018-04-14T14:15:13.831Z,795
2018-04-14T14:16:14.409Z,730
2018-04-14T14:17:14.964Z,685
2018-04-14T14:18:15.529Z,660
2018-04-14T14:19:16.100Z,650
2018-04-14T14:20:16.655Z,650
2018-04-14T14:21:17.221Z,660
2018-04-14T14:22:17.780Z,715
2018-04-14T14:23:18.345Z,745
2018-04-14T14:24:18.903Z,755
2018-04-14T14:25:19.467Z,780
2018-04-14T14:26:20.025Z,795
2018-04-14T14:27:20.591Z,880
2018-04-14T14:28:21.151Z,855
2018-04-14T14:29:21.713Z,820
2018-04-14T14:30:22.277Z,830
2018-04-14T14:31:22.843Z,845
2018-04-14T14:32:23.406Z,815
2018-04-14T14:33:23.971Z,795
2018-04-14T14:34:24.529Z,775
2018-04-14T14:35:25.089Z,760
2018-04-14T14:36:25.656Z,760
2018-04-14T14:37:26.217Z,790
2018-04-14T14:38:26.777Z,795
2018-04-14T14:39:27.340Z,800
2018-04-14T14:40:27.900Z,805
2018-04-14T14:41:28.463Z,825
2018-04-14T14:42:29.044Z,835
2018-04-14T14:43:29.579Z,860
2018-04-14T14:44:30.141Z,910
2018-04-14T14:45:30.707Z,940
2018-04-14T14:46:31.272Z,1000
2018-04-14T14:47:31.835Z,1060
2018-04-14T14:48:32.465Z,1135